sensor_id;sensor_type;location;lat;lon;timestamp;pressure;altitude;pressure_sealevel;temperature;humidity
64388;BME280;50709;52.648;4.764;2024-03-06T00:00:05;101870.84;;;12.02;71.97
64388;BME280;50709;52.648;4.764;2024-03-06T00:02:32;101858.63;;;12.02;72.59
64388;BME280;50709;52.648;4.764;2024-03-06T00:04:58;101853.38;;;12.02;72.35
64388;BME280;50709;52.648;4.764;2024-03-06T00:07:24;101857.97;;;12.19;72.26
64388;BME280;50709;52.648;4.764;2024-03-06T00:09:49;101868.44;;;12.19;71.81
64388;BME280;50709;52.648;4.764;2024-03-06T00:12:14;101858.72;;;12.11;71.89
64388;BME280;50709;52.648;4.764;2024-03-06T00:14:40;101879.41;;;11.93;71.32
64388;BME280;50709;52.648;4.764;2024-03-06T00:17:05;101871.66;;;11.98;72.51
64388;BME280;50709;52.648;4.764;2024-03-06T00:19:32;101882.16;;;11.99;73.00
64388;BME280;50709;52.648;4.764;2024-03-06T00:21:58;101877.00;;;12.05;72.11
64388;BME280;50709;52.648;4.764;2024-03-06T00:24:24;101877.78;;;12.00;72.11
64388;BME280;50709;52.648;4.764;2024-03-06T00:26:50;101880.34;;;11.95;71.81
64388;BME280;50709;52.648;4.764;2024-03-06T00:29:15;101876.75;;;11.90;72.52
64388;BME280;50709;52.648;4.764;2024-03-06T00:31:45;101879.25;;;11.82;71.76
64388;BME280;50709;52.648;4.764;2024-03-06T00:34:12;101873.41;;;11.97;73.17
64388;BME280;50709;52.648;4.764;2024-03-06T00:36:42;101887.53;;;12.11;72.03
64388;BME280;50709;52.648;4.764;2024-03-06T00:39:08;101884.03;;;12.09;72.45
64388;BME280;50709;52.648;4.764;2024-03-06T00:41:35;101891.66;;;11.94;71.63
64388;BME280;50709;52.648;4.764;2024-03-06T00:44:00;101880.75;;;11.63;72.25
64388;BME280;50709;52.648;4.764;2024-03-06T00:46:26;101899.31;;;11.80;72.69
64388;BME280;50709;52.648;4.764;2024-03-06T00:48:51;101898.78;;;12.01;72.82
64388;BME280;50709;52.648;4.764;2024-03-06T00:51:17;101891.63;;;11.92;72.32
64388;BME280;50709;52.648;4.764;2024-03-06T00:53:43;101895.75;;;11.75;72.94
64388;BME280;50709;52.648;4.764;2024-03-06T00:56:08;101893.75;;;11.57;72.48
64388;BME280;50709;52.648;4.764;2024-03-06T00:58:33;101900.72;;;11.58;73.95
64388;BME280;50709;52.648;4.764;2024-03-06T01:00:59;101922.44;;;11.52;73.52
64388;BME280;50709;52.648;4.764;2024-03-06T01:03:24;101913.13;;;11.70;73.77
64388;BME280;50709;52.648;4.764;2024-03-06T01:05:50;101919.34;;;11.78;73.09
64388;BME280;50709;52.648;4.764;2024-03-06T01:08:17;101914.91;;;11.74;73.88
64388;BME280;50709;52.648;4.764;2024-03-06T01:10:43;101921.91;;;11.75;73.37
64388;BME280;50709;52.648;4.764;2024-03-06T01:13:09;101930.25;;;11.48;72.15
64388;BME280;50709;52.648;4.764;2024-03-06T01:15:36;101932.75;;;11.43;73.62
64388;BME280;50709;52.648;4.764;2024-03-06T01:18:01;101944.09;;;11.42;73.68
64388;BME280;50709;52.648;4.764;2024-03-06T01:20:28;101939.69;;;11.38;73.36
64388;BME280;50709;52.648;4.764;2024-03-06T01:22:53;101949.09;;;11.28;73.84
64388;BME280;50709;52.648;4.764;2024-03-06T01:25:19;101927.81;;;11.06;74.39
64388;BME280;50709;52.648;4.764;2024-03-06T01:27:44;101933.34;;;11.25;74.02
64388;BME280;50709;52.648;4.764;2024-03-06T01:30:10;101942.03;;;11.22;73.83
64388;BME280;50709;52.648;4.764;2024-03-06T01:32:35;101937.81;;;11.32;73.38
64388;BME280;50709;52.648;4.764;2024-03-06T01:35:02;101938.94;;;11.47;72.98
64388;BME280;50709;52.648;4.764;2024-03-06T01:37:27;101925.16;;;11.05;72.84
64388;BME280;50709;52.648;4.764;2024-03-06T01:39:53;101938.97;;;11.50;72.17
64388;BME280;50709;52.648;4.764;2024-03-06T01:42:18;101933.66;;;11.42;73.12
64388;BME280;50709;52.648;4.764;2024-03-06T01:44:44;101940.78;;;11.54;72.74
64388;BME280;50709;52.648;4.764;2024-03-06T01:47:09;101931.84;;;11.39;73.25
64388;BME280;50709;52.648;4.764;2024-03-06T01:49:35;101933.41;;;11.28;73.13
64388;BME280;50709;52.648;4.764;2024-03-06T01:52:01;101914.66;;;11.02;73.16
64388;BME280;50709;52.648;4.764;2024-03-06T01:54:27;101935.25;;;11.34;73.00
64388;BME280;50709;52.648;4.764;2024-03-06T01:57:13;101941.34;;;11.34;73.26
64388;BME280;50709;52.648;4.764;2024-03-06T01:59:42;101943.50;;;11.06;71.79
64388;BME280;50709;52.648;4.764;2024-03-06T02:02:08;101933.50;;;11.34;73.19
64388;BME280;50709;52.648;4.764;2024-03-06T02:04:37;101950.22;;;11.42;73.15
64388;BME280;50709;52.648;4.764;2024-03-06T02:07:03;101948.22;;;11.27;73.58
64388;BME280;50709;52.648;4.764;2024-03-06T02:09:29;101945.75;;;11.35;73.09
64388;BME280;50709;52.648;4.764;2024-03-06T02:11:54;101965.00;;;11.40;73.10
64388;BME280;50709;52.648;4.764;2024-03-06T02:14:19;101957.66;;;11.18;72.02
64388;BME280;50709;52.648;4.764;2024-03-06T02:16:45;101963.97;;;11.32;73.26
64388;BME280;50709;52.648;4.764;2024-03-06T02:19:11;101958.09;;;11.45;71.85
64388;BME280;50709;52.648;4.764;2024-03-06T02:21:36;101961.69;;;11.52;72.28
64388;BME280;50709;52.648;4.764;2024-03-06T02:24:02;101961.69;;;11.52;73.79
64388;BME280;50709;52.648;4.764;2024-03-06T02:26:27;101963.44;;;11.52;73.21
64388;BME280;50709;52.648;4.764;2024-03-06T02:28:54;101970.53;;;11.59;73.59
64388;BME280;50709;52.648;4.764;2024-03-06T02:31:20;101950.16;;;11.39;73.19
64388;BME280;50709;52.648;4.764;2024-03-06T02:33:47;101974.34;;;11.80;73.52
64388;BME280;50709;52.648;4.764;2024-03-06T02:36:14;101959.09;;;11.54;72.71
64388;BME280;50709;52.648;4.764;2024-03-06T02:38:40;101962.81;;;11.68;72.52
64388;BME280;50709;52.648;4.764;2024-03-06T02:41:06;101971.59;;;11.72;71.96
64388;BME280;50709;52.648;4.764;2024-03-06T02:43:33;101965.28;;;11.57;72.14
64388;BME280;50709;52.648;4.764;2024-03-06T02:45:58;101972.44;;;11.69;72.30
64388;BME280;50709;52.648;4.764;2024-03-06T02:48:24;101977.47;;;11.57;72.39
64388;BME280;50709;52.648;4.764;2024-03-06T02:50:49;101973.72;;;11.41;72.83
64388;BME280;50709;52.648;4.764;2024-03-06T02:53:15;101962.47;;;11.45;73.44
64388;BME280;50709;52.648;4.764;2024-03-06T02:55:40;101973.97;;;11.56;73.24
64388;BME280;50709;52.648;4.764;2024-03-06T02:58:07;101968.56;;;11.45;73.02
64388;BME280;50709;52.648;4.764;2024-03-06T03:00:32;101969.69;;;11.60;72.46
64388;BME280;50709;52.648;4.764;2024-03-06T03:02:57;101963.47;;;11.55;72.72
64388;BME280;50709;52.648;4.764;2024-03-06T03:05:23;101975.59;;;11.50;72.52
64388;BME280;50709;52.648;4.764;2024-03-06T03:07:50;101966.94;;;11.54;73.05
64388;BME280;50709;52.648;4.764;2024-03-06T03:10:16;101970.16;;;11.37;72.84
64388;BME280;50709;52.648;4.764;2024-03-06T03:12:41;101979.75;;;11.37;72.75
64388;BME280;50709;52.648;4.764;2024-03-06T03:15:07;101978.09;;;11.40;73.56
64388;BME280;50709;52.648;4.764;2024-03-06T03:17:33;101986.06;;;10.99;72.66
64388;BME280;50709;52.648;4.764;2024-03-06T03:20:02;101973.06;;;11.54;73.27
64388;BME280;50709;52.648;4.764;2024-03-06T03:22:43;101972.63;;;11.28;72.73
64388;BME280;50709;52.648;4.764;2024-03-06T03:25:10;101962.50;;;10.98;73.58
64388;BME280;50709;52.648;4.764;2024-03-06T03:27:37;101986.13;;;11.02;73.27
64388;BME280;50709;52.648;4.764;2024-03-06T03:30:04;101984.88;;;10.83;72.99
64388;BME280;50709;52.648;4.764;2024-03-06T03:32:30;101979.19;;;11.03;73.93
64388;BME280;50709;52.648;4.764;2024-03-06T03:34:55;101978.72;;;11.27;73.74
64388;BME280;50709;52.648;4.764;2024-03-06T03:37:21;101982.66;;;11.54;73.69
64388;BME280;50709;52.648;4.764;2024-03-06T03:39:46;101964.72;;;11.77;73.65
64388;BME280;50709;52.648;4.764;2024-03-06T03:42:11;101965.59;;;11.77;72.60
64388;BME280;50709;52.648;4.764;2024-03-06T03:44:37;101975.91;;;11.68;72.68
64388;BME280;50709;52.648;4.764;2024-03-06T03:47:02;101979.44;;;11.70;72.46
64388;BME280;50709;52.648;4.764;2024-03-06T03:49:28;101976.16;;;11.84;72.34
64388;BME280;50709;52.648;4.764;2024-03-06T03:51:53;101978.47;;;11.64;72.26
64388;BME280;50709;52.648;4.764;2024-03-06T03:54:19;101982.06;;;11.70;72.98
64388;BME280;50709;52.648;4.764;2024-03-06T03:56:44;101984.53;;;11.61;72.16
64388;BME280;50709;52.648;4.764;2024-03-06T03:59:09;101987.78;;;11.48;72.87
64388;BME280;50709;52.648;4.764;2024-03-06T04:01:35;101987.28;;;11.18;72.63
64388;BME280;50709;52.648;4.764;2024-03-06T04:04:00;101985.81;;;11.34;73.28
64388;BME280;50709;52.648;4.764;2024-03-06T04:06:27;101991.44;;;11.57;73.02
64388;BME280;50709;52.648;4.764;2024-03-06T04:08:52;101995.69;;;11.51;73.03
64388;BME280;50709;52.648;4.764;2024-03-06T04:11:18;101991.22;;;11.43;72.95
64388;BME280;50709;52.648;4.764;2024-03-06T04:13:43;101973.44;;;11.25;72.33
64388;BME280;50709;52.648;4.764;2024-03-06T04:16:08;101991.81;;;11.27;73.24
64388;BME280;50709;52.648;4.764;2024-03-06T04:18:34;102002.59;;;11.47;73.20
64388;BME280;50709;52.648;4.764;2024-03-06T04:21:04;101996.06;;;11.22;72.19
64388;BME280;50709;52.648;4.764;2024-03-06T04:23:30;101989.13;;;11.25;73.02
64388;BME280;50709;52.648;4.764;2024-03-06T04:26:15;102006.16;;;11.51;73.30
64388;BME280;50709;52.648;4.764;2024-03-06T04:28:42;102008.78;;;11.52;72.74
64388;BME280;50709;52.648;4.764;2024-03-06T04:31:09;102004.47;;;11.54;72.99
64388;BME280;50709;52.648;4.764;2024-03-06T04:33:34;102007.75;;;11.42;72.16
64388;BME280;50709;52.648;4.764;2024-03-06T04:36:20;102013.97;;;11.49;73.23
64388;BME280;50709;52.648;4.764;2024-03-06T04:38:45;102014.72;;;11.42;72.90
64388;BME280;50709;52.648;4.764;2024-03-06T04:41:11;102010.16;;;11.30;72.97
64388;BME280;50709;52.648;4.764;2024-03-06T04:43:36;102004.91;;;11.28;73.21
64388;BME280;50709;52.648;4.764;2024-03-06T04:46:02;102014.59;;;10.87;71.42
64388;BME280;50709;52.648;4.764;2024-03-06T04:48:27;102014.06;;;11.05;73.59
64388;BME280;50709;52.648;4.764;2024-03-06T04:50:52;102018.69;;;11.21;73.47
64388;BME280;50709;52.648;4.764;2024-03-06T04:53:18;102019.22;;;11.02;72.02
64388;BME280;50709;52.648;4.764;2024-03-06T04:55:45;102028.47;;;11.30;73.43
64388;BME280;50709;52.648;4.764;2024-03-06T04:58:11;102041.59;;;11.33;72.60
64388;BME280;50709;52.648;4.764;2024-03-06T05:00:36;102033.03;;;11.40;73.12
64388;BME280;50709;52.648;4.764;2024-03-06T05:03:02;102036.91;;;11.15;73.13
64388;BME280;50709;52.648;4.764;2024-03-06T05:05:27;102031.16;;;10.89;73.23
64388;BME280;50709;52.648;4.764;2024-03-06T05:07:53;102045.00;;;11.29;73.69
64388;BME280;50709;52.648;4.764;2024-03-06T05:10:18;102050.44;;;10.94;72.99
64388;BME280;50709;52.648;4.764;2024-03-06T05:12:43;102040.34;;;11.13;73.61
64388;BME280;50709;52.648;4.764;2024-03-06T05:15:10;102046.13;;;10.96;73.99
64388;BME280;50709;52.648;4.764;2024-03-06T05:17:35;102032.41;;;11.08;73.79
64388;BME280;50709;52.648;4.764;2024-03-06T05:20:01;102057.00;;;11.18;74.09
64388;BME280;50709;52.648;4.764;2024-03-06T05:22:26;102051.94;;;10.81;72.91
64388;BME280;50709;52.648;4.764;2024-03-06T05:24:52;102066.22;;;10.99;74.54
64388;BME280;50709;52.648;4.764;2024-03-06T05:27:18;102067.16;;;11.02;73.91
64388;BME280;50709;52.648;4.764;2024-03-06T05:29:44;102060.69;;;10.83;73.94
64388;BME280;50709;52.648;4.764;2024-03-06T05:32:09;102047.91;;;10.56;73.48
64388;BME280;50709;52.648;4.764;2024-03-06T05:34:35;102070.44;;;10.92;74.12
64388;BME280;50709;52.648;4.764;2024-03-06T05:37:01;102068.75;;;10.96;74.52
64388;BME280;50709;52.648;4.764;2024-03-06T05:39:29;102078.97;;;11.26;75.10
64388;BME280;50709;52.648;4.764;2024-03-06T05:41:55;102074.75;;;11.34;74.36
64388;BME280;50709;52.648;4.764;2024-03-06T05:44:21;102077.59;;;11.48;73.43
64388;BME280;50709;52.648;4.764;2024-03-06T05:46:46;102077.03;;;11.65;72.25
64388;BME280;50709;52.648;4.764;2024-03-06T05:49:13;102077.19;;;11.75;71.75
64388;BME280;50709;52.648;4.764;2024-03-06T05:51:39;102064.63;;;12.05;71.15
64388;BME280;50709;52.648;4.764;2024-03-06T05:54:04;102086.41;;;12.02;71.06
64388;BME280;50709;52.648;4.764;2024-03-06T05:56:33;102093.19;;;11.91;70.88
64388;BME280;50709;52.648;4.764;2024-03-06T05:58:59;102080.50;;;12.14;70.41
64388;BME280;50709;52.648;4.764;2024-03-06T06:01:26;102101.22;;;11.99;71.21
64388;BME280;50709;52.648;4.764;2024-03-06T06:03:52;102104.03;;;12.13;69.37
64388;BME280;50709;52.648;4.764;2024-03-06T06:06:18;102077.59;;;11.47;70.17
64388;BME280;50709;52.648;4.764;2024-03-06T06:08:46;102105.06;;;12.22;69.84
64388;BME280;50709;52.648;4.764;2024-03-06T06:11:11;102103.53;;;12.35;67.88
64388;BME280;50709;52.648;4.764;2024-03-06T06:13:38;102098.00;;;11.66;70.56
64388;BME280;50709;52.648;4.764;2024-03-06T06:16:04;102105.53;;;11.03;71.16
64388;BME280;50709;52.648;4.764;2024-03-06T06:18:30;102112.50;;;11.94;70.68
64388;BME280;50709;52.648;4.764;2024-03-06T06:20:57;102113.41;;;11.98;69.33
64388;BME280;50709;52.648;4.764;2024-03-06T06:23:42;102122.50;;;12.20;69.67
64388;BME280;50709;52.648;4.764;2024-03-06T06:26:31;102124.31;;;12.24;69.79
64388;BME280;50709;52.648;4.764;2024-03-06T06:28:57;102127.78;;;12.23;69.56
64388;BME280;50709;52.648;4.764;2024-03-06T06:31:23;102133.88;;;12.24;68.87
64388;BME280;50709;52.648;4.764;2024-03-06T06:34:09;102129.47;;;12.20;69.17
64388;BME280;50709;52.648;4.764;2024-03-06T06:36:34;102129.94;;;11.95;69.01
64388;BME280;50709;52.648;4.764;2024-03-06T06:38:59;102128.25;;;11.98;69.64
64388;BME280;50709;52.648;4.764;2024-03-06T06:41:25;102144.94;;;12.04;70.49
64388;BME280;50709;52.648;4.764;2024-03-06T06:43:50;102144.81;;;11.98;70.12
64388;BME280;50709;52.648;4.764;2024-03-06T06:46:17;102150.16;;;12.04;69.95
64388;BME280;50709;52.648;4.764;2024-03-06T06:48:43;102137.94;;;11.57;70.75
64388;BME280;50709;52.648;4.764;2024-03-06T06:51:09;102164.56;;;11.36;70.67
64388;BME280;50709;52.648;4.764;2024-03-06T06:53:34;102161.06;;;11.80;71.60
64388;BME280;50709;52.648;4.764;2024-03-06T06:55:59;102167.34;;;11.90;72.49
64388;BME280;50709;52.648;4.764;2024-03-06T06:58:25;102178.22;;;11.66;72.19
64388;BME280;50709;52.648;4.764;2024-03-06T07:00:53;102170.00;;;11.45;72.13
64388;BME280;50709;52.648;4.764;2024-03-06T07:03:19;102178.75;;;11.05;73.20
64388;BME280;50709;52.648;4.764;2024-03-06T07:05:45;102188.66;;;11.20;73.38
64388;BME280;50709;52.648;4.764;2024-03-06T07:08:10;102194.47;;;11.06;73.11
64388;BME280;50709;52.648;4.764;2024-03-06T07:10:36;102200.19;;;10.50;72.66
64388;BME280;50709;52.648;4.764;2024-03-06T07:13:02;102190.81;;;10.98;74.47
64388;BME280;50709;52.648;4.764;2024-03-06T07:15:28;102174.31;;;11.01;74.09
64388;BME280;50709;52.648;4.764;2024-03-06T07:17:54;102200.16;;;10.87;73.55
64388;BME280;50709;52.648;4.764;2024-03-06T07:20:20;102198.53;;;10.92;73.75
64388;BME280;50709;52.648;4.764;2024-03-06T07:22:45;102205.81;;;10.69;73.22
64388;BME280;50709;52.648;4.764;2024-03-06T07:25:11;102209.34;;;10.69;73.20
64388;BME280;50709;52.648;4.764;2024-03-06T07:27:36;102199.41;;;10.54;73.35
64388;BME280;50709;52.648;4.764;2024-03-06T07:30:02;102207.25;;;10.92;75.21
64388;BME280;50709;52.648;4.764;2024-03-06T07:32:27;102217.28;;;10.75;73.21
64388;BME280;50709;52.648;4.764;2024-03-06T07:34:53;102210.44;;;10.42;73.42
64388;BME280;50709;52.648;4.764;2024-03-06T07:37:18;102218.22;;;10.77;74.72
64388;BME280;50709;52.648;4.764;2024-03-06T07:39:44;102223.44;;;11.16;74.43
64388;BME280;50709;52.648;4.764;2024-03-06T07:42:10;102211.44;;;10.86;73.22
64388;BME280;50709;52.648;4.764;2024-03-06T07:44:36;102218.44;;;10.49;73.54
64388;BME280;50709;52.648;4.764;2024-03-06T07:47:01;102239.63;;;10.99;74.77
64388;BME280;50709;52.648;4.764;2024-03-06T07:49:27;102224.34;;;10.43;73.93
64388;BME280;50709;52.648;4.764;2024-03-06T07:51:53;102225.09;;;10.37;73.61
64388;BME280;50709;52.648;4.764;2024-03-06T07:54:18;102240.25;;;10.52;73.67
64388;BME280;50709;52.648;4.764;2024-03-06T07:56:44;102231.03;;;10.67;74.05
64388;BME280;50709;52.648;4.764;2024-03-06T07:59:09;102238.47;;;10.51;73.48
64388;BME280;50709;52.648;4.764;2024-03-06T08:01:37;102236.72;;;10.49;75.25
64388;BME280;50709;52.648;4.764;2024-03-06T08:04:03;102231.31;;;10.42;74.74
64388;BME280;50709;52.648;4.764;2024-03-06T08:06:28;102246.38;;;10.89;75.57
64388;BME280;50709;52.648;4.764;2024-03-06T08:08:54;102246.75;;;11.06;74.70
64388;BME280;50709;52.648;4.764;2024-03-06T08:11:20;102255.97;;;10.90;74.11
64388;BME280;50709;52.648;4.764;2024-03-06T08:13:48;102255.19;;;10.58;74.25
64388;BME280;50709;52.648;4.764;2024-03-06T08:16:14;102262.66;;;10.42;74.37
64388;BME280;50709;52.648;4.764;2024-03-06T08:18:39;102271.19;;;10.70;74.26
64388;BME280;50709;52.648;4.764;2024-03-06T08:21:05;102265.97;;;10.35;76.30
64388;BME280;50709;52.648;4.764;2024-03-06T08:23:31;102266.56;;;10.58;74.26
64388;BME280;50709;52.648;4.764;2024-03-06T08:25:57;102280.34;;;10.53;74.94
64388;BME280;50709;52.648;4.764;2024-03-06T08:28:22;102289.50;;;10.37;75.70
64388;BME280;50709;52.648;4.764;2024-03-06T08:30:48;102293.63;;;10.62;75.38
64388;BME280;50709;52.648;4.764;2024-03-06T08:33:13;102287.75;;;10.71;74.00
64388;BME280;50709;52.648;4.764;2024-03-06T08:35:39;102292.41;;;10.48;74.11
64388;BME280;50709;52.648;4.764;2024-03-06T08:38:04;102294.91;;;10.80;75.48
64388;BME280;50709;52.648;4.764;2024-03-06T08:40:31;102286.44;;;10.53;74.23
64388;BME280;50709;52.648;4.764;2024-03-06T08:42:57;102293.94;;;10.74;75.21
64388;BME280;50709;52.648;4.764;2024-03-06T08:45:22;102301.38;;;10.59;75.16
64388;BME280;50709;52.648;4.764;2024-03-06T08:47:50;102291.19;;;10.70;74.46
64388;BME280;50709;52.648;4.764;2024-03-06T08:50:19;102301.78;;;10.74;75.12
64388;BME280;50709;52.648;4.764;2024-03-06T08:52:45;102302.91;;;10.51;74.35
64388;BME280;50709;52.648;4.764;2024-03-06T08:55:11;102317.03;;;10.57;74.46
64388;BME280;50709;52.648;4.764;2024-03-06T08:57:37;102309.88;;;10.50;74.09
64388;BME280;50709;52.648;4.764;2024-03-06T09:00:04;102320.41;;;10.23;74.73
64388;BME280;50709;52.648;4.764;2024-03-06T09:02:30;102312.88;;;10.66;74.64
64388;BME280;50709;52.648;4.764;2024-03-06T09:04:56;102309.38;;;11.00;74.20
64388;BME280;50709;52.648;4.764;2024-03-06T09:07:21;102314.38;;;10.56;74.32
64388;BME280;50709;52.648;4.764;2024-03-06T09:09:50;102317.22;;;10.65;74.36
64388;BME280;50709;52.648;4.764;2024-03-06T09:12:17;102317.97;;;10.94;74.18
64388;BME280;50709;52.648;4.764;2024-03-06T09:14:43;102319.22;;;10.75;73.48
64388;BME280;50709;52.648;4.764;2024-03-06T09:17:08;102319.66;;;10.94;74.08
64388;BME280;50709;52.648;4.764;2024-03-06T09:19:34;102318.88;;;10.62;75.17
64388;BME280;50709;52.648;4.764;2024-03-06T09:22:00;102328.44;;;10.96;74.59
64388;BME280;50709;52.648;4.764;2024-03-06T09:24:25;102336.09;;;11.25;74.21
64388;BME280;50709;52.648;4.764;2024-03-06T09:26:51;102326.88;;;10.68;74.46
64388;BME280;50709;52.648;4.764;2024-03-06T09:29:17;102329.66;;;11.10;74.78
64388;BME280;50709;52.648;4.764;2024-03-06T09:31:43;102336.78;;;11.16;73.48
64388;BME280;50709;52.648;4.764;2024-03-06T09:34:08;102350.19;;;10.95;72.89
64388;BME280;50709;52.648;4.764;2024-03-06T09:36:41;102343.84;;;10.84;74.75
64388;BME280;50709;52.648;4.764;2024-03-06T09:39:12;102346.78;;;11.34;72.91
64388;BME280;50709;52.648;4.764;2024-03-06T09:41:40;102348.94;;;11.54;73.05
64388;BME280;50709;52.648;4.764;2024-03-06T09:44:06;102342.28;;;11.68;73.24
64388;BME280;50709;52.648;4.764;2024-03-06T09:46:33;102360.59;;;11.68;72.07
64388;BME280;50709;52.648;4.764;2024-03-06T09:48:59;102364.41;;;11.83;73.33
64388;BME280;50709;52.648;4.764;2024-03-06T09:51:26;102373.06;;;11.80;72.20
64388;BME280;50709;52.648;4.764;2024-03-06T09:53:53;102363.03;;;11.99;71.32
64388;BME280;50709;52.648;4.764;2024-03-06T09:56:19;102368.59;;;11.74;73.04
64388;BME280;50709;52.648;4.764;2024-03-06T09:58:45;102363.84;;;11.96;72.41
64388;BME280;50709;52.648;4.764;2024-03-06T10:01:13;102378.06;;;11.69;71.37
64388;BME280;50709;52.648;4.764;2024-03-06T10:03:39;102373.16;;;11.43;72.95
64388;BME280;50709;52.648;4.764;2024-03-06T10:06:08;102372.09;;;11.75;72.08
64388;BME280;50709;52.648;4.764;2024-03-06T10:08:34;102364.03;;;12.05;72.95
64388;BME280;50709;52.648;4.764;2024-03-06T10:11:00;102387.25;;;11.90;71.49
64388;BME280;50709;52.648;4.764;2024-03-06T10:13:26;102375.88;;;11.50;71.77
64388;BME280;50709;52.648;4.764;2024-03-06T10:18:21;102375.16;;;11.55;72.53
64388;BME280;50709;52.648;4.764;2024-03-06T10:20:47;102386.00;;;11.72;72.89
64388;BME280;50709;52.648;4.764;2024-03-06T10:23:12;102374.31;;;11.94;72.18
64388;BME280;50709;52.648;4.764;2024-03-06T10:25:38;102386.16;;;11.80;71.53
64388;BME280;50709;52.648;4.764;2024-03-06T10:28:11;102374.59;;;12.56;71.21
64388;BME280;50709;52.648;4.764;2024-03-06T10:30:37;102393.47;;;12.36;71.56
64388;BME280;50709;52.648;4.764;2024-03-06T10:33:04;102388.69;;;12.17;72.13
64388;BME280;50709;52.648;4.764;2024-03-06T10:35:32;102399.31;;;11.83;71.49
64388;BME280;50709;52.648;4.764;2024-03-06T10:38:00;102392.22;;;11.77;71.50
64388;BME280;50709;52.648;4.764;2024-03-06T10:40:26;102395.78;;;11.81;71.88
64388;BME280;50709;52.648;4.764;2024-03-06T10:42:55;102395.47;;;11.67;72.05
64388;BME280;50709;52.648;4.764;2024-03-06T10:45:23;102368.50;;;11.71;70.55
64388;BME280;50709;52.648;4.764;2024-03-06T10:47:53;102396.06;;;11.93;70.15
64388;BME280;50709;52.648;4.764;2024-03-06T10:50:19;102403.50;;;12.15;70.58
64388;BME280;50709;52.648;4.764;2024-03-06T10:52:47;102399.16;;;12.59;70.16
64388;BME280;50709;52.648;4.764;2024-03-06T10:55:15;102395.63;;;12.15;71.39
64388;BME280;50709;52.648;4.764;2024-03-06T10:57:41;102366.78;;;12.13;70.50
64388;BME280;50709;52.648;4.764;2024-03-06T11:00:08;102403.75;;;12.25;70.38
64388;BME280;50709;52.648;4.764;2024-03-06T11:02:33;102416.41;;;12.05;70.52
64388;BME280;50709;52.648;4.764;2024-03-06T11:05:02;102411.72;;;12.33;70.97
64388;BME280;50709;52.648;4.764;2024-03-06T11:07:30;102412.22;;;11.75;71.96
64388;BME280;50709;52.648;4.764;2024-03-06T11:09:58;102419.50;;;11.89;71.28
64388;BME280;50709;52.648;4.764;2024-03-06T11:12:38;102424.31;;;12.07;72.89
64388;BME280;50709;52.648;4.764;2024-03-06T11:15:14;102413.53;;;12.36;73.03
64388;BME280;50709;52.648;4.764;2024-03-06T11:17:41;102415.31;;;12.38;71.38
64388;BME280;50709;52.648;4.764;2024-03-06T11:20:15;102408.03;;;12.68;70.19
64388;BME280;50709;52.648;4.764;2024-03-06T11:26:03;102421.59;;;12.04;71.45
64388;BME280;50709;52.648;4.764;2024-03-06T11:28:36;102428.28;;;12.32;70.44
64388;BME280;50709;52.648;4.764;2024-03-06T11:31:10;102429.22;;;12.34;69.53
64388;BME280;50709;52.648;4.764;2024-03-06T11:33:45;102417.34;;;12.09;70.77
64388;BME280;50709;52.648;4.764;2024-03-06T11:36:27;102435.06;;;12.21;70.73
64388;BME280;50709;52.648;4.764;2024-03-06T11:38:58;102391.06;;;12.04;71.24
64388;BME280;50709;52.648;4.764;2024-03-06T11:41:28;102429.41;;;12.91;70.69
64388;BME280;50709;52.648;4.764;2024-03-06T11:43:56;102425.81;;;12.86;70.11
64388;BME280;50709;52.648;4.764;2024-03-06T11:46:22;102435.41;;;12.38;70.19
64388;BME280;50709;52.648;4.764;2024-03-06T11:48:53;102441.91;;;12.57;71.01
64388;BME280;50709;52.648;4.764;2024-03-06T11:51:19;102441.56;;;12.40;70.15
64388;BME280;50709;52.648;4.764;2024-03-06T11:53:45;102442.31;;;12.34;71.49
64388;BME280;50709;52.648;4.764;2024-03-06T11:56:10;102444.22;;;12.00;71.17
64388;BME280;50709;52.648;4.764;2024-03-06T11:58:36;102385.94;;;11.69;71.76
64388;BME280;50709;52.648;4.764;2024-03-06T12:01:03;102432.22;;;12.53;70.72
64388;BME280;50709;52.648;4.764;2024-03-06T12:03:29;102434.09;;;12.60;70.91
64388;BME280;50709;52.648;4.764;2024-03-06T12:05:55;102454.00;;;12.50;71.18
64388;BME280;50709;52.648;4.764;2024-03-06T12:08:20;102438.69;;;13.22;69.63
64388;BME280;50709;52.648;4.764;2024-03-06T12:10:46;102447.22;;;12.61;69.97
64388;BME280;50709;52.648;4.764;2024-03-06T12:13:13;102450.78;;;12.21;70.41
64388;BME280;50709;52.648;4.764;2024-03-06T12:15:38;102441.13;;;12.18;71.12
64388;BME280;50709;52.648;4.764;2024-03-06T12:18:07;102444.75;;;12.69;71.45
64388;BME280;50709;52.648;4.764;2024-03-06T12:20:32;102448.88;;;12.56;69.73
64388;BME280;50709;52.648;4.764;2024-03-06T12:22:58;102444.03;;;12.78;70.26
64388;BME280;50709;52.648;4.764;2024-03-06T12:25:25;102434.88;;;12.56;70.07
64388;BME280;50709;52.648;4.764;2024-03-06T12:27:52;102435.28;;;12.32;72.65
64388;BME280;50709;52.648;4.764;2024-03-06T12:30:22;102445.97;;;12.88;70.67
64388;BME280;50709;52.648;4.764;2024-03-06T12:33:01;102444.13;;;12.37;70.50
64388;BME280;50709;52.648;4.764;2024-03-06T12:35:30;102445.94;;;12.85;70.50
64388;BME280;50709;52.648;4.764;2024-03-06T12:37:56;102454.22;;;12.61;69.63
64388;BME280;50709;52.648;4.764;2024-03-06T12:40:22;102451.47;;;13.02;70.27
64388;BME280;50709;52.648;4.764;2024-03-06T12:42:47;102440.94;;;12.52;70.35
64388;BME280;50709;52.648;4.764;2024-03-06T12:45:15;102461.63;;;12.38;70.71
64388;BME280;50709;52.648;4.764;2024-03-06T12:47:44;102434.75;;;13.48;68.66
64388;BME280;50709;52.648;4.764;2024-03-06T12:50:11;102456.19;;;13.75;67.72
64388;BME280;50709;52.648;4.764;2024-03-06T12:52:37;102458.34;;;13.44;66.94